createdAt,value
2023-04-09T00:02:22.782Z,46.30
2023-04-09T00:04:51.450Z,46.30
2023-04-09T00:07:21.494Z,46.40
2023-04-09T00:09:50.205Z,46.50
2023-04-09T00:12:18.774Z,46.50
2023-04-09T00:14:47.406Z,46.50
2023-04-09T00:17:16.385Z,46.60
2023-04-09T00:19:45.119Z,46.50
2023-04-09T00:22:13.837Z,46.60
2023-04-09T00:24:43.876Z,46.60
2023-04-09T00:27:12.529Z,46.60
2023-04-09T00:29:41.205Z,46.50
2023-04-09T00:32:09.845Z,46.60
2023-04-09T00:34:38.881Z,46.70
2023-04-09T00:37:08.572Z,46.70
2023-04-09T00:39:37.238Z,46.70
2023-04-09T00:42:07.270Z,46.60
2023-04-09T00:44:36.093Z,46.70
2023-04-09T00:47:05.027Z,46.60
2023-04-09T00:49:33.817Z,46.70
2023-04-09T00:52:02.537Z,46.60
2023-04-09T00:54:31.219Z,46.70
2023-04-09T00:57:01.090Z,46.60
2023-04-09T00:59:31.583Z,46.60
2023-04-09T01:02:00.351Z,46.60
2023-04-09T01:04:29.138Z,46.60
2023-04-09T01:07:07.071Z,46.50
2023-04-09T01:09:42.601Z,46.30
2023-04-09T01:12:19.782Z,46.40
2023-04-09T01:14:58.371Z,46.30
2023-04-09T01:17:35.982Z,46.30
2023-04-09T01:20:11.727Z,46.30
2023-04-09T01:22:56.140Z,46.30
2023-04-09T01:25:46.349Z,46.30
2023-04-09T01:28:22.815Z,46.30
2023-04-09T01:30:59.740Z,46.30
2023-04-09T01:33:30.760Z,46.20
2023-04-09T01:36:01.488Z,46.30
2023-04-09T01:38:30.278Z,46.30
2023-04-09T01:41:00.893Z,46.30
2023-04-09T01:43:33.405Z,46.40
2023-04-09T01:46:07.252Z,46.30
2023-04-09T01:48:36.129Z,46.30
2023-04-09T01:51:05.436Z,46.30
2023-04-09T01:53:34.094Z,46.30
2023-04-09T01:56:03.719Z,46.30
2023-04-09T01:58:35.233Z,46.30
2023-04-09T02:01:11.999Z,46.30
2023-04-09T02:03:47.918Z,46.30
2023-04-09T02:06:26.734Z,46.30
2023-04-09T02:08:56.167Z,46.30
2023-04-09T02:11:27.224Z,46.30
2023-04-09T02:13:59.725Z,46.30
2023-04-09T02:16:29.289Z,46.20
2023-04-09T02:18:57.957Z,46.20
2023-04-09T02:21:27.142Z,46.30
2023-04-09T02:23:55.948Z,46.20
2023-04-09T02:26:25.225Z,46.20
2023-04-09T02:28:54.194Z,46.20
2023-04-09T02:31:24.626Z,46.20
2023-04-09T02:33:54.194Z,46.20
2023-04-09T02:36:22.908Z,46.20
2023-04-09T02:38:51.715Z,46.20
2023-04-09T02:41:21.504Z,46.20
2023-04-09T02:43:50.126Z,46.20
2023-04-09T02:46:18.899Z,46.20
2023-04-09T02:48:48.979Z,46.20
2023-04-09T02:51:17.644Z,46.10
2023-04-09T02:53:46.328Z,46.10
2023-04-09T02:56:15.065Z,46.10
2023-04-09T02:58:43.702Z,46.10
2023-04-09T03:01:12.365Z,46.70
2023-04-09T03:03:42.408Z,46.00
2023-04-09T03:06:12.495Z,46.00
2023-04-09T03:08:41.260Z,46.00
2023-04-09T03:11:09.843Z,46.10
2023-04-09T03:13:38.556Z,46.10
2023-04-09T03:16:08.601Z,46.10
2023-04-09T03:18:37.625Z,46.10
2023-04-09T03:21:08.120Z,46.10
2023-04-09T03:23:40.878Z,46.00
2023-04-09T03:26:10.168Z,46.00
2023-04-09T03:28:46.575Z,46.00
2023-04-09T03:31:15.442Z,46.10
2023-04-09T03:33:45.604Z,46.10
2023-04-09T03:36:15.553Z,46.10
2023-04-09T03:39:01.950Z,46.10
2023-04-09T03:41:39.745Z,46.00
2023-04-09T03:44:12.837Z,46.10
2023-04-09T03:47:04.455Z,46.10
2023-04-09T03:49:33.268Z,46.10
2023-04-09T03:52:09.826Z,46.10
2023-04-09T03:54:44.633Z,46.10
2023-04-09T03:57:18.626Z,46.10
2023-04-09T03:59:50.136Z,46.10
2023-04-09T04:02:22.171Z,46.20
2023-04-09T04:04:59.640Z,46.20
2023-04-09T04:07:34.426Z,46.10
2023-04-09T04:10:15.877Z,46.10
2023-04-09T04:12:47.783Z,46.10
2023-04-09T04:15:46.946Z,46.10
2023-04-09T04:18:17.523Z,46.10
2023-04-09T04:20:50.054Z,46.20
2023-04-09T04:23:19.137Z,46.20
2023-04-09T04:26:10.835Z,46.10
2023-04-09T04:28:40.411Z,46.10
2023-04-09T04:31:13.927Z,46.10
2023-04-09T04:33:43.896Z,46.10
2023-04-09T04:36:16.471Z,46.10
2023-04-09T04:38:49.284Z,46.10
2023-04-09T04:41:30.562Z,46.10
2023-04-09T04:44:11.104Z,46.10
2023-04-09T04:46:40.370Z,46.10
2023-04-09T04:49:08.997Z,46.10
2023-04-09T04:51:46.094Z,46.10
2023-04-09T04:54:16.953Z,46.10
2023-04-09T04:56:54.569Z,46.10
2023-04-09T04:59:38.841Z,46.10
2023-04-09T05:02:08.932Z,46.10
2023-04-09T05:04:47.923Z,46.10
2023-04-09T05:07:19.501Z,46.10
2023-04-09T05:09:54.821Z,46.20
2023-04-09T05:12:24.822Z,46.20
2023-04-09T05:14:54.999Z,46.20
2023-04-09T05:17:24.765Z,46.30
2023-04-09T05:19:53.909Z,46.30
2023-04-09T05:22:28.554Z,46.30
2023-04-09T05:24:57.178Z,46.40
2023-04-09T05:27:28.309Z,46.40
2023-04-09T05:30:02.299Z,46.30
2023-04-09T05:32:31.033Z,46.40
2023-04-09T05:35:00.029Z,46.40
2023-04-09T05:37:30.449Z,46.40
2023-04-09T05:39:59.100Z,46.50
2023-04-09T05:42:29.143Z,46.60
2023-04-09T05:45:03.474Z,46.70
2023-04-09T05:47:32.245Z,46.70
2023-04-09T05:50:10.616Z,46.70
2023-04-09T05:52:39.407Z,46.70
2023-04-09T05:55:09.926Z,46.80
2023-04-09T05:57:46.727Z,46.90
2023-04-09T06:00:18.358Z,46.90
2023-04-09T06:02:48.486Z,47.00
2023-04-09T06:05:17.432Z,47.00
2023-04-09T06:07:46.243Z,47.00
2023-04-09T06:10:16.054Z,47.10
2023-04-09T06:12:46.104Z,47.20
2023-04-09T06:15:14.923Z,47.30
2023-04-09T06:17:43.565Z,47.50
2023-04-09T06:20:12.965Z,47.60
2023-04-09T06:22:41.596Z,47.70
2023-04-09T06:25:10.544Z,47.80
2023-04-09T06:27:39.236Z,47.80
2023-04-09T06:30:11.867Z,47.90
2023-04-09T06:32:53.051Z,48.20
2023-04-09T06:35:23.418Z,48.10
2023-04-09T06:37:52.094Z,48.20
2023-04-09T06:40:23.304Z,48.20
2023-04-09T06:42:52.190Z,48.30
2023-04-09T06:45:44.920Z,48.40
2023-04-09T06:48:13.551Z,48.40
2023-04-09T06:50:42.164Z,48.30
2023-04-09T06:53:10.950Z,48.50
2023-04-09T06:55:39.799Z,48.60
2023-04-09T06:58:08.454Z,48.60
2023-04-09T07:00:37.161Z,48.70
2023-04-09T07:03:09.266Z,48.70
2023-04-09T07:05:38.275Z,48.80
2023-04-09T07:08:07.416Z,48.80
2023-04-09T07:10:36.235Z,48.80
2023-04-09T07:13:05.074Z,48.80
2023-04-09T07:15:34.011Z,48.80
2023-04-09T07:18:02.757Z,48.90
2023-04-09T07:20:34.401Z,48.90
2023-04-09T07:23:03.019Z,49.10
2023-04-09T07:25:32.454Z,49.10
2023-04-09T07:28:01.204Z,49.10
2023-04-09T07:30:29.907Z,49.00
2023-04-09T07:32:58.617Z,49.30
2023-04-09T07:35:27.783Z,49.30
2023-04-09T07:37:58.843Z,49.40
2023-04-09T07:40:27.706Z,49.50
2023-04-09T07:42:58.192Z,49.50
2023-04-09T07:45:26.917Z,49.50
2023-04-09T07:47:55.656Z,49.50
2023-04-09T07:50:24.649Z,49.50
2023-04-09T07:52:53.332Z,49.50
2023-04-09T07:55:23.342Z,49.40
2023-04-09T07:57:52.051Z,49.40
2023-04-09T08:00:21.424Z,49.50
2023-04-09T08:02:50.225Z,49.40
2023-04-09T08:05:19.158Z,49.40
2023-04-09T08:07:47.876Z,49.50
2023-04-09T08:10:16.951Z,49.40
2023-04-09T08:12:49.274Z,49.40
2023-04-09T08:15:18.076Z,49.30
2023-04-09T08:17:46.787Z,49.10
2023-04-09T08:20:16.981Z,49.00
2023-04-09T08:22:45.648Z,48.90
2023-04-09T08:25:14.296Z,48.80
2023-04-09T08:27:43.052Z,48.80
2023-04-09T08:30:14.508Z,48.70
2023-04-09T08:32:45.641Z,48.60
2023-04-09T08:35:14.676Z,48.60
2023-04-09T08:37:43.908Z,48.60
2023-04-09T08:40:13.439Z,48.50
2023-04-09T08:42:46.471Z,48.50
2023-04-09T08:45:17.207Z,48.40
2023-04-09T08:47:48.377Z,48.40
2023-04-09T08:50:17.228Z,48.30
2023-04-09T08:52:49.023Z,48.30
2023-04-09T08:55:17.945Z,48.10
2023-04-09T08:57:46.652Z,48.10
2023-04-09T09:00:17.181Z,48.20
2023-04-09T09:03:06.839Z,48.20
2023-04-09T09:05:40.800Z,48.30
2023-04-09T09:08:10.410Z,48.40
2023-04-09T09:10:41.515Z,48.20
2023-04-09T09:13:21.361Z,48.00
2023-04-09T09:15:55.164Z,47.80
2023-04-09T09:18:40.507Z,47.50
2023-04-09T09:21:12.976Z,47.10
2023-04-09T09:23:42.444Z,47.00
2023-04-09T09:26:16.504Z,47.00
2023-04-09T09:28:46.953Z,47.00
2023-04-09T09:31:20.411Z,47.70
2023-04-09T09:33:51.176Z,48.10
2023-04-09T09:36:33.443Z,47.90
2023-04-09T09:39:09.927Z,48.00
2023-04-09T09:41:38.965Z,47.90
2023-04-09T09:44:08.230Z,47.70
2023-04-09T09:46:41.354Z,47.30
2023-04-09T09:49:10.920Z,46.90
2023-04-09T09:51:41.664Z,47.10
2023-04-09T09:54:12.958Z,46.90
2023-04-09T09:56:43.477Z,46.80
2023-04-09T09:59:18.163Z,47.00
2023-04-09T10:01:49.829Z,45.90
2023-04-09T10:04:21.516Z,45.60
2023-04-09T10:06:53.472Z,45.60
2023-04-09T10:09:24.788Z,45.50
2023-04-09T10:11:53.832Z,44.80
2023-04-09T10:14:23.629Z,44.70
2023-04-09T10:16:53.944Z,44.60
2023-04-09T10:19:23.894Z,44.20
2023-04-09T10:22:00.864Z,44.20
2023-04-09T10:24:29.631Z,43.80
2023-04-09T10:27:12.549Z,44.20
2023-04-09T10:29:48.014Z,43.70
2023-04-09T10:32:23.622Z,43.80
2023-04-09T10:34:52.519Z,43.70
2023-04-09T10:37:24.365Z,44.00
2023-04-09T10:39:54.230Z,44.20
2023-04-09T10:42:25.868Z,44.50
2023-04-09T10:45:09.741Z,44.30
2023-04-09T10:47:42.798Z,44.00
2023-04-09T10:50:19.888Z,44.30
2023-04-09T10:52:49.171Z,44.00
2023-04-09T10:55:37.748Z,44.30
2023-04-09T10:58:09.073Z,44.00
2023-04-09T11:00:41.850Z,44.40
2023-04-09T11:03:27.676Z,44.20
2023-04-09T11:06:02.580Z,44.10
2023-04-09T11:08:33.526Z,44.10
2023-04-09T11:11:02.703Z,44.10
2023-04-09T11:13:33.129Z,44.20
2023-04-09T11:16:04.249Z,44.00
2023-04-09T11:18:37.130Z,44.00
2023-04-09T11:21:06.004Z,44.30
2023-04-09T11:23:36.050Z,44.00
2023-04-09T11:26:05.408Z,44.00
2023-04-09T11:28:36.345Z,43.90
2023-04-09T11:31:07.360Z,43.80
2023-04-09T11:33:37.473Z,43.70
2023-04-09T11:36:07.536Z,43.60
2023-04-09T11:38:38.111Z,43.80
2023-04-09T11:41:06.970Z,43.90
2023-04-09T11:43:38.146Z,43.90
2023-04-09T11:46:08.297Z,43.60
2023-04-09T11:48:38.440Z,44.50
2023-04-09T11:51:07.603Z,43.70
2023-04-09T11:53:39.166Z,43.80
2023-04-09T11:56:08.264Z,43.30
2023-04-09T11:58:37.654Z,43.50
2023-04-09T12:01:06.557Z,43.50
2023-04-09T12:03:37.686Z,43.40
2023-04-09T12:06:09.295Z,43.20
2023-04-09T12:08:38.430Z,43.20
2023-04-09T12:11:11.604Z,43.10
2023-04-09T12:13:43.233Z,42.80
2023-04-09T12:16:12.763Z,43.10
2023-04-09T12:18:42.945Z,42.90
2023-04-09T12:21:11.820Z,42.60
2023-04-09T12:23:40.877Z,42.80
2023-04-09T12:26:09.528Z,42.80
2023-04-09T12:28:38.208Z,42.70
2023-04-09T12:31:10.875Z,42.70
2023-04-09T12:33:40.561Z,42.70
2023-04-09T12:36:10.791Z,42.60
2023-04-09T12:38:39.483Z,42.60
2023-04-09T12:41:08.256Z,42.70
2023-04-09T12:43:37.261Z,42.80
2023-04-09T12:46:06.771Z,43.00
2023-04-09T12:48:35.383Z,42.80
2023-04-09T12:51:04.948Z,42.80
2023-04-09T12:53:34.963Z,42.70
2023-04-09T12:56:03.761Z,42.30
2023-04-09T12:58:32.744Z,42.40
2023-04-09T13:01:01.785Z,42.50
2023-04-09T13:03:30.679Z,42.70
2023-04-09T13:05:59.377Z,42.80
2023-04-09T13:08:28.024Z,42.40
2023-04-09T13:10:58.084Z,42.60
2023-04-09T13:13:26.806Z,42.20
2023-04-09T13:15:55.533Z,42.20
2023-04-09T13:18:24.191Z,42.00
2023-04-09T13:20:53.275Z,42.10
2023-04-09T13:23:21.891Z,42.70
2023-04-09T13:25:50.704Z,42.10
2023-04-09T13:28:20.706Z,42.10
2023-04-09T13:30:49.736Z,41.80
2023-04-09T13:33:18.414Z,42.10
2023-04-09T13:35:47.531Z,42.20
2023-04-09T13:38:16.255Z,42.20
2023-04-09T13:40:45.029Z,42.20
2023-04-09T13:43:13.749Z,42.40
2023-04-09T13:45:43.819Z,42.30
2023-04-09T13:48:15.407Z,42.20
2023-04-09T13:50:44.365Z,42.50
2023-04-09T13:53:13.036Z,42.20
2023-04-09T13:55:41.698Z,42.20
2023-04-09T13:58:10.498Z,42.00
2023-04-09T14:00:39.215Z,41.90
2023-04-09T14:03:11.232Z,41.80
2023-04-09T14:05:39.992Z,41.60
2023-04-09T14:08:08.670Z,41.60
2023-04-09T14:10:37.758Z,41.40
2023-04-09T14:13:07.475Z,41.30
2023-04-09T14:15:36.207Z,41.20
2023-04-09T14:18:04.971Z,41.30
2023-04-09T14:20:36.221Z,41.10
2023-04-09T14:23:04.875Z,41.10
2023-04-09T14:25:33.635Z,40.90
2023-04-09T14:28:02.655Z,40.90
2023-04-09T14:30:31.394Z,40.80
2023-04-09T14:33:00.198Z,40.70
2023-04-09T14:35:29.310Z,40.60
2023-04-09T14:37:59.424Z,40.60
2023-04-09T14:40:28.277Z,41.20
2023-04-09T14:42:56.919Z,40.70
2023-04-09T14:45:25.735Z,40.70
2023-04-09T14:47:55.016Z,40.40
2023-04-09T14:50:23.865Z,40.40
2023-04-09T14:52:52.586Z,40.50
2023-04-09T14:55:22.752Z,40.50
2023-04-09T14:57:51.475Z,40.40
2023-04-09T15:00:20.666Z,40.80
2023-04-09T15:02:49.642Z,40.90
2023-04-09T15:05:18.507Z,41.30
2023-04-09T15:07:47.097Z,40.90
2023-04-09T15:10:16.106Z,41.00
2023-04-09T15:12:46.221Z,41.80
2023-04-09T15:15:14.903Z,40.90
2023-04-09T15:17:43.710Z,41.00
2023-04-09T15:20:13.956Z,40.90
2023-04-09T15:22:42.779Z,40.90
2023-04-09T15:25:13.756Z,41.00
2023-04-09T15:27:42.971Z,40.90
2023-04-09T15:30:13.216Z,40.80
2023-04-09T15:32:41.904Z,40.90
2023-04-09T15:35:10.924Z,40.90
2023-04-09T15:37:39.531Z,40.90
2023-04-09T15:40:09.882Z,40.80
2023-04-09T15:42:38.511Z,40.80
2023-04-09T15:45:08.619Z,41.10
2023-04-09T15:47:38.649Z,40.60
2023-04-09T15:50:10.410Z,40.40
2023-04-09T15:52:39.055Z,40.40
2023-04-09T15:55:08.891Z,40.50
2023-04-09T15:57:38.402Z,40.20
2023-04-09T16:00:10.786Z,40.10
2023-04-09T16:02:41.327Z,40.00
2023-04-09T16:05:10.479Z,39.90
2023-04-09T16:07:39.634Z,40.00
2023-04-09T16:10:09.700Z,40.00
2023-04-09T16:12:38.581Z,40.00
2023-04-09T16:15:09.268Z,40.00
2023-04-09T16:17:40.800Z,39.80
2023-04-09T16:20:11.683Z,39.80
2023-04-09T16:22:40.296Z,39.90
2023-04-09T16:25:10.088Z,39.90
2023-04-09T16:27:38.818Z,39.90
2023-04-09T16:30:09.022Z,39.80
2023-04-09T16:32:37.615Z,39.80
2023-04-09T16:35:07.293Z,39.70
2023-04-09T16:37:38.742Z,39.60
2023-04-09T16:40:09.022Z,39.50
2023-04-09T16:42:37.878Z,39.50
2023-04-09T16:45:09.400Z,39.50
2023-04-09T16:47:38.176Z,39.50
2023-04-09T16:50:11.570Z,39.60
2023-04-09T16:52:43.328Z,39.50
2023-04-09T16:55:12.286Z,39.30
2023-04-09T16:57:44.084Z,39.50
2023-04-09T17:00:13.892Z,39.50
2023-04-09T17:02:42.814Z,39.50
2023-04-09T17:05:11.941Z,39.50
2023-04-09T17:07:43.193Z,39.50
2023-04-09T17:10:12.618Z,39.50
2023-04-09T17:12:42.180Z,39.60
2023-04-09T17:15:12.967Z,39.60
2023-04-09T17:17:41.914Z,39.50
2023-04-09T17:20:12.482Z,40.30
2023-04-09T17:22:42.737Z,39.60
2023-04-09T17:25:12.217Z,39.50
2023-04-09T17:27:42.122Z,39.60
2023-04-09T17:30:12.252Z,39.60
2023-04-09T17:32:41.454Z,39.60
2023-04-09T17:35:11.682Z,39.50
2023-04-09T17:37:41.779Z,39.60
2023-04-09T17:40:12.504Z,39.40
2023-04-09T17:42:41.343Z,39.50
2023-04-09T17:45:11.901Z,39.40
2023-04-09T17:47:40.807Z,39.40
2023-04-09T17:50:10.766Z,39.50
2023-04-09T17:52:40.664Z,39.30
2023-04-09T17:55:12.960Z,39.30
2023-04-09T17:57:42.890Z,39.00
2023-04-09T18:00:12.968Z,39.50
2023-04-09T18:02:48.016Z,39.70
2023-04-09T18:05:17.208Z,39.80
2023-04-09T18:07:46.001Z,40.20
2023-04-09T18:10:15.968Z,40.20
2023-04-09T18:12:44.621Z,39.70
2023-04-09T18:15:13.519Z,39.70
2023-04-09T18:17:42.201Z,39.60
2023-04-09T18:20:12.845Z,39.60
2023-04-09T18:22:41.469Z,39.60
2023-04-09T18:25:10.943Z,39.50
2023-04-09T18:27:41.041Z,39.50
2023-04-09T18:30:10.709Z,39.30
2023-04-09T18:32:39.775Z,39.30
2023-04-09T18:35:09.290Z,39.30
2023-04-09T18:37:38.076Z,39.20
2023-04-09T18:40:08.851Z,39.30
2023-04-09T18:42:37.526Z,39.80
2023-04-09T18:45:09.097Z,39.80
2023-04-09T18:47:40.522Z,40.00
2023-04-09T18:50:10.374Z,40.00
2023-04-09T18:52:39.115Z,40.00
2023-04-09T18:55:08.924Z,40.10
2023-04-09T18:57:38.161Z,40.10
2023-04-09T19:00:10.392Z,39.90
2023-04-09T19:02:39.200Z,39.80
2023-04-09T19:05:09.113Z,40.00
2023-04-09T19:07:37.836Z,40.00
2023-04-09T19:10:09.308Z,40.10
2023-04-09T19:12:39.074Z,39.80
2023-04-09T19:15:10.930Z,40.20
2023-04-09T19:17:39.595Z,40.30
2023-04-09T19:20:09.732Z,40.20
2023-04-09T19:22:38.842Z,40.20
2023-04-09T19:25:09.918Z,40.30
2023-04-09T19:27:38.529Z,40.40
2023-04-09T19:30:10.828Z,40.50
2023-04-09T19:32:41.334Z,40.60
2023-04-09T19:35:10.548Z,40.60
2023-04-09T19:37:39.775Z,40.60
2023-04-09T19:40:10.464Z,40.60
2023-04-09T19:42:39.340Z,40.60
2023-04-09T19:45:11.529Z,40.70
2023-04-09T19:47:40.260Z,40.70
2023-04-09T19:50:09.711Z,41.50
2023-04-09T19:52:38.810Z,40.60
2023-04-09T19:55:09.433Z,40.60
2023-04-09T19:57:38.088Z,40.70
2023-04-09T20:00:09.996Z,40.60
2023-04-09T20:02:41.937Z,40.60
2023-04-09T20:05:11.720Z,41.40
2023-04-09T20:07:40.448Z,40.80
2023-04-09T20:10:11.059Z,40.80
2023-04-09T20:12:39.706Z,40.90
2023-04-09T20:15:11.776Z,41.00
2023-04-09T20:17:41.896Z,41.10
2023-04-09T20:20:11.827Z,41.10
2023-04-09T20:22:43.232Z,41.10
2023-04-09T20:25:12.509Z,41.10
2023-04-09T20:27:41.187Z,41.10
2023-04-09T20:30:12.356Z,41.20
2023-04-09T20:32:41.150Z,41.10
2023-04-09T20:35:11.139Z,41.20
2023-04-09T20:37:39.795Z,41.10
2023-04-09T20:40:12.314Z,41.10
2023-04-09T20:42:42.484Z,41.20
2023-04-09T20:45:13.212Z,41.10
2023-04-09T20:47:42.254Z,41.10
2023-04-09T20:50:12.338Z,41.30
2023-04-09T20:52:40.960Z,41.30
2023-04-09T20:55:10.463Z,41.20
2023-04-09T20:57:39.119Z,41.30
2023-04-09T21:00:10.257Z,41.30
2023-04-09T21:02:42.125Z,41.30
2023-04-09T21:05:21.795Z,41.50
2023-04-09T21:07:52.117Z,41.40
2023-04-09T21:10:20.995Z,41.40
2023-04-09T21:12:49.738Z,41.40
2023-04-09T21:15:18.641Z,41.40
2023-04-09T21:17:48.687Z,42.20
2023-04-09T21:20:17.529Z,41.60
2023-04-09T21:22:46.250Z,41.60
2023-04-09T21:25:15.687Z,41.60
2023-04-09T21:27:44.525Z,41.70
2023-04-09T21:30:13.747Z,41.70
2023-04-09T21:32:42.471Z,41.70
2023-04-09T21:35:12.607Z,41.80
2023-04-09T21:37:41.260Z,41.80
2023-04-09T21:40:11.076Z,41.80
2023-04-09T21:42:39.707Z,41.80
2023-04-09T21:45:09.483Z,41.80
2023-04-09T21:47:38.271Z,41.80
2023-04-09T21:50:09.471Z,41.80
2023-04-09T21:52:39.581Z,41.80
2023-04-09T21:55:10.282Z,41.90
2023-04-09T21:57:38.906Z,41.80
2023-04-09T22:00:11.084Z,41.80
2023-04-09T22:02:40.323Z,41.90
2023-04-09T22:05:10.116Z,41.80
2023-04-09T22:07:40.631Z,41.80
2023-04-09T22:10:11.025Z,41.90
2023-04-09T22:12:39.730Z,42.60
2023-04-09T22:15:09.703Z,41.90
2023-04-09T22:17:38.729Z,41.90
2023-04-09T22:20:09.674Z,41.90
2023-04-09T22:22:41.993Z,41.90
2023-04-09T22:25:12.301Z,41.90
2023-04-09T22:27:40.982Z,41.90
2023-04-09T22:30:10.872Z,41.90
2023-04-09T22:32:39.548Z,41.90
2023-04-09T22:35:15.014Z,41.90
2023-04-09T22:37:46.520Z,42.00
2023-04-09T22:40:16.305Z,41.90
2023-04-09T22:42:45.984Z,41.90
2023-04-09T22:45:15.031Z,41.80
2023-04-09T22:47:43.776Z,41.90
2023-04-09T22:50:13.545Z,41.80
2023-04-09T22:52:42.264Z,41.80
2023-04-09T22:55:13.692Z,41.80
2023-04-09T22:57:44.298Z,41.80
2023-04-09T23:00:14.501Z,41.80
2023-04-09T23:02:43.508Z,41.80
2023-04-09T23:05:12.292Z,41.80
2023-04-09T23:07:42.750Z,41.80
2023-04-09T23:10:14.332Z,41.90
2023-04-09T23:12:45.018Z,41.90
2023-04-09T23:15:13.789Z,41.90
2023-04-09T23:17:42.912Z,41.90
2023-04-09T23:20:14.870Z,41.90
2023-04-09T23:22:43.734Z,41.90
2023-04-09T23:25:14.458Z,42.00
2023-04-09T23:27:43.372Z,42.00
2023-04-09T23:30:16.841Z,42.00
2023-04-09T23:32:46.450Z,41.90
2023-04-09T23:35:15.523Z,42.00
2023-04-09T23:37:44.340Z,42.00
2023-04-09T23:40:15.770Z,42.00
2023-04-09T23:42:44.479Z,42.00
2023-04-09T23:45:13.430Z,42.00
2023-04-09T23:47:42.414Z,42.00
2023-04-09T23:50:11.983Z,41.90
2023-04-09T23:52:40.682Z,41.90
2023-04-09T23:55:10.814Z,41.90
2023-04-09T23:57:41.058Z,42.00
